Latest Coastal Weather Observations for Port Lincoln Airport

IDS60701

Issued at 5:21 am CST Wednesday 29 April 2015 (issued every 10 minutes, with the page automatically refreshed every 10 minutes)

About coastal observations | Map of coastal stations | Coastal observations for SA | Marine services | Other Formats
Station Details ID: 018192 Name: PORT LINCOLN AWS Lat: -34.60 Lon: 135.88 Height: 8.5 m
Data from the previous 72 hours. | See also: Recent months at Port Lincoln Airport
Date/Time
CST
Temp

°C
Wind Pressure Rain
since 9am
mm
Weather Cloud Vis
km
Sea
Height
m
Swell
Dir
 
Speed
knots
Gust
knots
hPa Trend Height
m
Period
s
Dir
29/05:00am 12.5 NE 4 7 1030.2 - 0.0 - Partly cloudy 10 - - - -
29/04:30am 11.8 ESE 7 8 1029.9 - 0.0 - Partly cloudy 10 - - - -
29/04:00am 12.3 ESE 7 9 1029.9 - 0.0 - Partly cloudy 10 - - - -
29/03:30am 12.7 E 8 9 1029.9 - 0.0 - - 10 - - - -
29/03:00am 13.3 E 10 12 1029.9 - 0.0 - - 10 - - - -
29/02:30am 13.0 ESE 9 14 1029.9 - 0.0 - Partly cloudy 10 - - - -
29/02:00am 12.9 ESE 9 13 1030.1 - 0.0 - Partly cloudy 10 - - - -
29/01:30am 13.5 E 12 14 1030.0 - 0.0 - Partly cloudy 10 - - - -
29/01:00am 13.7 E 10 13 1030.1 - 0.0 - Partly cloudy 10 - - - -
29/12:30am 13.5 E 9 11 1030.1 - 0.0 - Partly cloudy 10 - - - -
29/12:00am 13.0 E 8 10 1030.2 - 0.0 - Mostly clear 10 - - - -
 
Date/Time
CST
Temp

°C
Wind Pressure Rain
since 9am
mm
Weather Cloud Vis
km
Sea
Height
m
Swell
Dir
 
Speed
knots
Gust
knots
hPa Trend Height
m
Period
s
Dir
28/11:30pm 12.2 ESE 7 8 1030.2 - 0.0 - Partly cloudy 10 - - - -
28/11:00pm 12.3 ESE 6 7 1030.3 - 0.0 - Partly cloudy 10 - - - -
28/10:30pm 13.0 SE 7 8 1030.2 - 0.0 - Partly cloudy 10 - - - -
28/10:00pm 12.3 S 6 7 1030.1 - 0.0 - Partly cloudy 10 - - - -
28/09:30pm 12.7 SE 6 7 1030.1 - 0.0 - Cloudy 10 - - - -
28/09:00pm 13.0 SE 8 9 1030.0 - 0.0 - Cloudy 10 - - - -
28/08:30pm 12.5 SSE 7 8 1029.9 - 0.0 - Partly cloudy 10 - - - -
28/08:00pm 11.9 SE 7 8 1029.8 - 0.0 - Partly cloudy 10 - - - -
28/07:30pm 11.9 ESE 6 7 1029.8 - 0.0 - Partly cloudy 10 - - - -
28/07:00pm 12.3 ESE 6 7 1029.7 - 0.0 - Partly cloudy 10 - - - -
28/06:30pm 12.1 SE 6 7 1029.6 - 0.0 - - 10 - - - -
28/06:00pm 12.6 SE 7 9 1029.2 - 0.0 - - 10 - - - -
28/05:30pm 13.4 ESE 7 8 1029.0 - 0.0 - - 10 - - - -
28/05:00pm 15.0 SE 8 10 1029.0 - 0.0 - Partly cloudy 10 - - - -
28/04:30pm 15.6 SSE 8 11 1028.8 - 0.0 - Cloudy 10 - - - -
28/04:00pm 16.0 SSE 7 11 1028.8 - 0.0 - Partly cloudy 10 - - - -
28/03:30pm 16.4 SSE 9 12 1028.7 - 0.0 - Partly cloudy 10 - - - -
28/03:00pm 15.6 SE 7 9 1028.7 - 0.0 - Cloudy 10 - - - -
28/02:30pm 15.7 S 8 11 1028.8 - 0.0 - Cloudy 10 - - - -
28/02:00pm 15.7 SSE 9 11 1029.0 - 0.0 - Partly cloudy 10 - - - -
28/01:30pm 15.6 SSE 9 12 1029.2 - 0.0 - Partly cloudy 10 - - - -
28/01:00pm 15.5 E 8 11 1029.6 - 0.0 - Cloudy 10 - - - -
28/12:30pm 16.7 E 10 13 1030.0 - 0.0 - Cloudy 10 - - - -
28/12:00pm 15.6 E 12 15 1030.4 - 0.0 - Partly cloudy 10 - - - -
28/11:30am 15.8 SE 4 6 1030.8 - 0.0 - - 10 - - - -
28/11:00am 15.0 SE 4 6 1031.1 - 0.0 - Partly cloudy 10 - - - -
28/10:30am 14.6 CALM 0 0 1031.2 - 0.0 - - 10 - - - -
28/10:00am 15.2 SSE 4 6 1031.3 - 0.0 - Partly cloudy 10 - - - -
28/09:30am 14.5 CALM 0 0 1031.3 - 0.0 - - 10 - - - -
28/09:00am 13.7 NNW 4 5 1031.2 - 0.0 - - 10 - - - -
28/08:30am 12.5 NW 3 4 1031.1 - 0.0 - - 10 - - - -
28/08:00am 11.0 NW 6 7 1030.9 - 0.0 - - 10 - - - -
28/07:30am 8.8 NW 6 7 1030.6 - 0.0 - - 10 - - - -
28/07:00am 8.5 WNW 5 6 1030.5 - 0.0 - - 10 - - - -
28/06:30am 8.9 WNW 5 6 1030.3 - 0.0 - - 10 - - - -
28/06:00am 9.2 WNW 5 5 1030.1 - 0.0 - - 10 - - - -
28/05:30am 10.4 WSW 8 9 1029.9 - 0.0 - - 10 - - - -
28/05:00am 10.7 WSW 8 10 1029.8 - 0.0 - Partly cloudy 10 - - - -
28/04:30am 11.3 WSW 8 9 1029.6 - 0.0 - Cloudy 10 - - - -
28/04:00am 10.8 WSW 8 11 1029.5 - 0.0 - Partly cloudy 10 - - - -
28/03:30am 8.4 WSW 4 5 1029.6 - 0.0 - - 10 - - - -
28/03:00am 8.7 W 4 5 1029.5 - 0.0 - - 10 - - - -
28/02:30am 8.7 SW 4 5 1029.4 - 0.0 - - 10 - - - -
28/02:00am 8.6 WNW 3 4 1029.6 - 0.0 - - 10 - - - -
28/01:30am 9.1 WSW 3 5 1029.5 - 0.0 - - 10 - - - -
28/01:00am 9.9 SW 4 5 1029.6 - 0.0 - - 10 - - - -
28/12:30am 9.6 SW 4 5 1029.6 - 0.0 - Partly cloudy 10 - - - -
28/12:00am 9.9 SW 5 6 1029.7 - 0.0 - Mostly clear 10 - - - -
 
Date/Time
CST
Temp

°C
Wind Pressure Rain
since 9am
mm
Weather Cloud Vis
km
Sea
Height
m
Swell
Dir
 
Speed
knots
Gust
knots
hPa Trend Height
m
Period
s
Dir
27/11:30pm 10.5 SW 5 6 1029.7 - 0.0 - Partly cloudy 10 - - - -
27/11:00pm 11.5 S 7 8 1030.0 - 0.0 - Partly cloudy 10 - - - -
27/10:30pm 11.8 SSW 7 8 1030.1 - 0.0 - Partly cloudy 10 - - - -
27/10:00pm 11.8 SW 6 7 1030.1 - 0.0 - Partly cloudy 10 - - - -
27/09:30pm 11.1 WSW 6 7 1030.0 - 0.0 - Partly cloudy 10 - - - -
27/09:00pm 12.0 SW 6 7 1029.9 - 0.0 - Mostly clear 10 - - - -
27/08:30pm 12.0 WSW 7 8 1029.8 - 0.0 - Partly cloudy 10 - - - -
27/08:00pm 12.6 WSW 8 10 1029.8 - 0.0 - Partly cloudy 10 - - - -
27/07:30pm 13.1 SW 7 10 1029.7 - 0.0 - Partly cloudy 10 - - - -
27/07:00pm 12.7 WSW 8 10 1029.4 - 0.0 - Partly cloudy 10 - - - -
27/06:30pm 12.8 SW 7 11 1029.2 - 0.0 - Partly cloudy 10 - - - -
27/06:00pm 13.1 SW 6 7 1029.0 - 0.0 - - 10 - - - -
27/05:30pm 14.1 SSW 13 16 1028.8 - 0.0 - - 10 - - - -
27/05:00pm 15.8 SSW 12 17 1028.5 - 0.0 - Partly cloudy 10 - - - -
27/04:30pm 15.5 SW 11 15 1028.4 - 0.0 - Partly cloudy 10 - - - -
27/04:00pm 15.6 SSW 10 15 1028.5 - 0.0 - Partly cloudy 10 - - - -
27/03:30pm 15.5 SSW 15 19 1028.5 - 0.0 - Partly cloudy 10 - - - -
27/03:00pm 16.5 S 10 13 1028.2 - 0.0 - Cloudy 10 - - - -
27/02:30pm 15.1 SW 8 11 1028.2 - 0.0 - Partly cloudy 10 - - - -
27/02:00pm 14.3 SSW 17 21 1028.2 - 0.0 - Partly cloudy 10 - - - -
27/01:30pm 16.7 S 13 15 1028.1 - 0.0 - Partly cloudy 10 - - - -
27/01:00pm 16.2 S 13 15 1028.3 - 0.0 - Partly cloudy 10 - - - -
27/12:30pm 16.7 SSE 7 10 1028.8 - 0.0 - Partly cloudy 10 - - - -
27/12:00pm 16.6 S 6 10 1029.3 - 0.0 - Mostly cloudy 10 - - - -
27/11:30am 16.8 SSE 7 10 1029.6 - 0.0 - Cloudy 10 - - - -
27/11:00am 16.5 SSE 8 12 1029.7 - 0.0 - Partly cloudy 10 - - - -
27/10:30am 17.0 S 8 11 1029.7 - 0.0 - - 10 - - - -
27/10:00am 15.8 S 7 12 1029.8 - 0.0 - Partly cloudy 10 - - - -
27/09:30am 14.8 SW 6 7 1029.8 - 0.0 - Cloudy 10 - - - -
27/09:00am 14.1 SW 5 6 1029.6 - 0.2 - Cloudy 10 - - - -
27/08:30am 13.6 WSW 6 8 1029.4 - 0.2 - Cloudy 10 - - - -
27/08:00am 13.2 WSW 4 7 1029.1 - 0.2 - Cloudy 10 - - - -
27/07:30am 12.3 SW 5 6 1028.6 - 0.2 - Cloudy 10 - - - -
27/07:00am 12.4 WSW 6 7 1028.3 - 0.2 - Cloudy 10 - - - -
27/06:30am 12.9 SSW 5 7 1028.2 - 0.0 - Cloudy 10 - - - -
27/06:00am 12.3 SSW 7 13 1028.1 - 0.0 - Cloudy 10 - - - -
27/05:30am 12.3 SW 5 6 1028.0 - 0.0 - Cloudy 10 - - - -
27/05:00am 12.5 SW 6 8 1028.0 - 0.0 - Cloudy 10 - - - -
27/04:30am 12.4 SW 5 7 1027.8 - 0.0 - Cloudy 10 - - - -
27/04:00am 12.3 WSW 5 6 1027.8 - 0.0 - Cloudy 10 - - - -
27/03:30am 12.5 SW 6 7 1027.7 - 0.0 - Cloudy 10 - - - -
27/03:00am 12.5 WSW 6 8 1027.8 - 0.0 - Cloudy 10 - - - -
27/02:30am 12.1 W 5 7 1027.7 - 0.0 - Cloudy 10 - - - -
27/02:00am 11.9 W 6 7 1027.9 - 0.0 - Cloudy 10 - - - -
27/01:30am 11.5 WNW 5 7 1027.9 - 0.0 - Cloudy 10 - - - -
27/01:00am 11.4 WNW 6 7 1028.0 - 0.0 - Cloudy 10 - - - -
27/12:30am 11.3 WNW 4 5 1028.2 - 0.0 - Cloudy 10 - - - -
27/12:00am 10.6 NW 4 5 1028.3 - 0.0 - Cloudy 10 - - - -
 
Date/Time
CST
Temp

°C
Wind Pressure Rain
since 9am
mm
Weather Cloud Vis
km
Sea
Height
m
Swell
Dir
 
Speed
knots
Gust
knots
hPa Trend Height
m
Period
s
Dir
26/11:30pm 11.4 NW 4 5 1028.3 - 0.0 - Partly cloudy 10 - - - -
26/11:15pm 11.5 W 3 4 1028.5 - 0.0 - Partly cloudy 10 - - - -
26/11:00pm 11.8 SW 6 8 1028.7 - 0.0 - Partly cloudy 4 - - - -
26/10:54pm 11.8 SW 7 8 1028.8 - 0.0 - Partly cloudy 5 - - - -
26/10:30pm 12.4 SW 10 13 1028.7 - 0.0 - Partly cloudy 9 - - - -
26/10:00pm 13.4 SW 9 11 1028.4 - 0.0 - Partly cloudy 10 - - - -
26/09:30pm 13.4 SW 5 7 1028.2 - 0.0 - Partly cloudy 10 - - - -
26/09:00pm 13.4 WSW 4 5 1028.2 - 0.0 - Cloudy 10 - - - -
26/08:30pm 13.6 SW 5 6 1028.1 - 0.0 - Cloudy 10 - - - -
26/08:00pm 13.7 WSW 5 7 1028.0 - 0.0 - Partly cloudy 10 - - - -
26/07:30pm 14.3 SSW 7 8 1027.9 - 0.0 - Cloudy 10 - - - -
26/07:00pm 14.2 SW 7 9 1027.7 - 0.0 - Cloudy 10 - - - -
26/06:30pm 14.1 SW 5 7 1027.4 - 0.0 - Cloudy 10 - - - -
26/06:00pm 14.6 SW 8 11 1027.1 - 0.0 - Cloudy 10 - - - -
26/05:30pm 14.8 SSW 11 15 1026.9 - 0.0 - Cloudy 10 - - - -
26/05:00pm 15.1 SSW 11 13 1026.6 - 0.0 - Cloudy 10 - - - -
26/04:30pm 15.2 SSW 11 15 1026.3 - 0.0 - Cloudy 10 - - - -
26/04:00pm 15.0 S 10 12 1026.3 - 0.0 - Cloudy 10 - - - -
26/03:30pm 15.1 S 16 18 1026.2 - 0.0 - Cloudy 10 - - - -
26/03:00pm 15.9 S 12 15 1026.0 - 0.0 - Cloudy 10 - - - -
26/02:30pm 16.2 S 14 17 1025.9 - 0.0 - Cloudy 10 - - - -
26/02:00pm 16.3 S 11 15 1025.9 - 0.0 - Cloudy 10 - - - -
26/01:30pm 16.3 S 13 17 1026.0 - 0.0 - Cloudy 10 - - - -
26/01:00pm 16.1 S 14 17 1026.1 - 0.0 - Cloudy 10 - - - -
26/12:30pm 16.6 S 14 17 1026.2 - 0.0 - Partly cloudy 10 - - - -
26/12:00pm 17.2 S 13 17 1026.5 - 0.0 - Cloudy 10 - - - -
26/11:30am 17.2 S 15 17 1026.6 - 0.0 - Partly cloudy 10 - - - -
26/11:00am 17.3 S 15 18 1026.6 - 0.0 - - 10 - - - -
26/10:30am 16.9 S 15 19 1026.5 - 0.0 - Partly cloudy 10 - - - -
26/10:00am 16.8 SSW 13 16 1026.5 - 0.0 - Partly cloudy 10 - - - -
26/09:30am 16.8 SSW 10 14 1026.5 - 0.0 - Cloudy 10 - - - -
26/09:00am 14.4 SW 9 12 1026.5 - 1.4 - Mostly cloudy 10 - - - -
26/08:30am 13.8 SW 9 12 1026.4 - 1.4 - Partly cloudy 10 - - - -
26/08:00am 13.1 SW 8 11 1026.2 - 1.4 - Partly cloudy 10 - - - -
26/07:30am 13.0 SW 8 9 1025.8 - 1.4 - Partly cloudy 10 - - - -
26/07:00am 12.7 SW 7 9 1025.3 - 1.4 - Partly cloudy 10 - - - -
26/06:30am 12.1 WSW 7 9 1025.0 - 1.4 - Partly cloudy 10 - - - -
26/06:00am 11.7 WSW 7 9 1024.6 - 1.4 - Mostly cloudy 10 - - - -
26/05:30am 12.2 SW 7 9 1024.5 - 1.4 - Partly cloudy 10 - - - -

Other Formats:

Comma delimited format used in spreadsheet applications
http://www.bom.gov.au/fwo/IDS60701/IDS60701.95661.axf

JavaScript Object Notation format (JSON) in row-major order
http://www.bom.gov.au/fwo/IDS60701/IDS60701.95661.json